Peotone Weather
Peotone-Weather Station Historical Data
 
Daily Summary for February 27, 2024 Units:  English    Metric   Both
Daily Weekly Monthly Yearly
  Current: High: Low: Average:
Temperature: 68.9 °F 70 °F 50.7 °F 58.8 °F
Dew Point: 60.1 °F 60.6 °F 49.2 °F 54.8 °F
Humidity: 73.7% 96% 71.5% 87%
Wind Speed: 9mph 16.8mph 4.1mph 9.7mph
Wind Gust: 20.4mph 34.8mph - -
WindSouth - - South
Pressure: 29.33 in 29.50 in 29.33 in -
Precipitation: 0.00 in      
 
 
Tabular Data for February 27, 2024
Time Temperature Dew Point Pressure Wind Wind Speed Wind Gust Humidity Rainfall Rate (Hourly) solar
00:04 59.3 °F 53.8 °F 29.50 in South 15.4 mph 34.8 mph 82% 0.00 in 0 W/m2
00:09 59.1 °F 53.6 °F 29.50 in South 12.2 mph 26.4 mph 82% 0.00 in 0 W/m2
00:14 59 °F 53.6 °F 29.50 in SSW 15.3 mph 26.4 mph 82.2% 0.00 in 0 W/m2
00:19 59.1 °F 53.9 °F 29.50 in South 13.4 mph 26.4 mph 83% 0.00 in 0 W/m2
00:24 59 °F 53.8 °F 29.50 in South 14.8 mph 25.2 mph 83% 0.00 in 0 W/m2
00:29 58.9 °F 53.9 °F 29.50 in SSW 14.3 mph 24 mph 83.4% 0.00 in 0 W/m2
00:34 58.9 °F 54 °F 29.49 in South 12.5 mph 24 mph 83.8% 0.00 in 0 W/m2
00:39 58.9 °F 54.1 °F 29.49 in South 13.7 mph 25.2 mph 84% 0.00 in 0 W/m2
00:44 58.8 °F 54 °F 29.49 in SSW 13 mph 28.8 mph 84% 0.00 in 0 W/m2
00:49 58.8 °F 54 °F 29.49 in South 13.3 mph 28.8 mph 84% 0.00 in 0 W/m2
00:54 58.9 °F 54.1 °F 29.49 in South 13.3 mph 28.8 mph 84% 0.00 in 0 W/m2
00:59 58.8 °F 54 °F 29.49 in South 11.4 mph 26.4 mph 84% 0.00 in 0 W/m2
01:04 58.7 °F 54.1 °F 29.49 in South 11.7 mph 26.4 mph 84.6% 0.00 in 0 W/m2
01:09 58.7 °F 54.2 °F 29.49 in South 12.2 mph 26.4 mph 85% 0.00 in 0 W/m2
01:14 58.6 °F 54.1 °F 29.49 in South 12.4 mph 26.4 mph 85% 0.00 in 0 W/m2
01:19 58.6 °F 54.1 °F 29.49 in South 10.9 mph 26.4 mph 85% 0.00 in 0 W/m2
01:24 58.5 °F 54 °F 29.49 in South 11.7 mph 26.4 mph 85% 0.00 in 0 W/m2
01:29 58.5 °F 54 °F 29.49 in South 10.9 mph 26.4 mph 85% 0.00 in 0 W/m2
01:34 58.3 °F 53.9 °F 29.49 in South 12.1 mph 26.4 mph 85.2% 0.00 in 0 W/m2
01:39 58.2 °F 54 °F 29.48 in South 11.6 mph 24 mph 86% 0.00 in 0 W/m2
01:44 58.2 °F 54 °F 29.48 in South 10.1 mph 24 mph 86% 0.00 in 0 W/m2
01:49 58.1 °F 53.9 °F 29.48 in SSW 10.8 mph 24 mph 86% 0.00 in 0 W/m2
01:54 58 °F 53.8 °F 29.48 in South 10.3 mph 20.4 mph 86% 0.00 in 0 W/m2
01:59 57.9 °F 53.9 °F 29.48 in South 9.5 mph 19.2 mph 86.4% 0.00 in 0 W/m2
02:04 57.9 °F 53.8 °F 29.48 in South 9.6 mph 19.2 mph 86.2% 0.00 in 0 W/m2
02:09 57.7 °F 53.7 °F 29.48 in South 8.9 mph 19.2 mph 86.5% 0.00 in 0 W/m2
02:14 57.6 °F 53.8 °F 29.48 in South 10.9 mph 20.4 mph 87% 0.00 in 0 W/m2
02:19 57.4 °F 53.6 °F 29.48 in South 10.1 mph 20.4 mph 87% 0.00 in 0 W/m2
02:24 57.3 °F 53.5 °F 29.48 in South 8.3 mph 20.4 mph 87% 0.00 in 0 W/m2
02:29 57.2 °F 53.4 °F 29.47 in South 8.1 mph 20.4 mph 87% 0.00 in 0 W/m2
02:34 57.1 °F 53.5 °F 29.48 in South 8.5 mph 18 mph 87.7% 0.00 in 0 W/m2
02:39 57 °F 53.5 °F 29.47 in South 7.4 mph 18 mph 88% 0.00 in 0 W/m2
02:44 56.6 °F 53.1 °F 29.47 in South 8.4 mph 16.8 mph 87.8% 0.00 in 0 W/m2
02:49 56.4 °F 52.9 °F 29.47 in South 7.6 mph 16.8 mph 88% 0.00 in 0 W/m2
02:54 56.3 °F 52.8 °F 29.47 in South 7.2 mph 16.8 mph 88.1% 0.00 in 0 W/m2
02:59 56.2 °F 53 °F 29.47 in South 7.7 mph 14.4 mph 89% 0.00 in 0 W/m2
03:04 56 °F 52.9 °F 29.47 in South 7.2 mph 16.8 mph 89% 0.00 in 0 W/m2
03:09 55.9 °F 52.7 °F 29.47 in SSE 7.1 mph 16.8 mph 89% 0.00 in 0 W/m2
03:14 55.8 °F 52.6 °F 29.47 in South 7.4 mph 18 mph 89% 0.00 in 0 W/m2
03:19 55.7 °F 52.6 °F 29.47 in South 7.7 mph 18 mph 89.4% 0.00 in 0 W/m2
03:24 55.5 °F 52.7 °F 29.47 in South 8.4 mph 18 mph 90% 0.00 in 0 W/m2
03:29 55.8 °F 52.9 °F 29.46 in South 8.3 mph 18 mph 90% 0.00 in 0 W/m2
03:34 55.9 °F 53.1 °F 29.46 in SSW 7.1 mph 15.6 mph 90% 0.00 in 0 W/m2
03:39 56 °F 53.2 °F 29.46 in South 8.6 mph 14.4 mph 90% 0.00 in 0 W/m2
03:44 56.1 °F 53.2 °F 29.46 in South 7 mph 14.4 mph 90% 0.00 in 0 W/m2
03:49 56 °F 53.1 °F 29.46 in SSW 7.7 mph 20.4 mph 90% 0.00 in 0 W/m2
03:54 55.9 °F 53 °F 29.46 in South 7.6 mph 20.4 mph 90% 0.00 in 0 W/m2
03:59 55.7 °F 52.9 °F 29.46 in South 6.7 mph 20.4 mph 90% 0.00 in 0 W/m2
04:04 55.5 °F 52.6 °F 29.46 in South 7.9 mph 18 mph 90% 0.00 in 0 W/m2
04:09 55.3 °F 52.6 °F 29.46 in South 6.6 mph 14.4 mph 90.8% 0.00 in 0 W/m2
04:14 55 °F 52.4 °F 29.46 in South 7.1 mph 14.4 mph 91% 0.00 in 0 W/m2
04:19 54.8 °F 52.2 °F 29.46 in South 5.4 mph 13.2 mph 91% 0.00 in 0 W/m2
04:24 54.6 °F 52.2 °F 29.45 in South 5.6 mph 13.2 mph 91.3% 0.00 in 0 W/m2
04:29 54.4 °F 51.9 °F 29.45 in South 5.5 mph 13.2 mph 91.3% 0.00 in 0 W/m2
04:34 54.2 °F 51.9 °F 29.45 in South 5.8 mph 13.2 mph 92% 0.00 in 0 W/m2
04:39 54.1 °F 51.8 °F 29.45 in South 5.5 mph 13.2 mph 92% 0.00 in 0 W/m2
04:44 53.8 °F 51.6 °F 29.45 in South 5.4 mph 13.2 mph 92% 0.00 in 0 W/m2
04:49 53.7 °F 51.5 °F 29.45 in SSE 5.3 mph 10.8 mph 92.2% 0.00 in 0 W/m2
04:54 53.5 °F 51.3 °F 29.45 in South 4.9 mph 10.8 mph 92.3% 0.00 in 0 W/m2
04:59 53.3 °F 51.3 °F 29.45 in SSE 6.3 mph 10.8 mph 93% 0.00 in 0 W/m2
05:04 53.1 °F 51.1 °F 29.45 in SSE 5.1 mph 10.8 mph 93% 0.00 in 0 W/m2
05:09 53 °F 51 °F 29.45 in South 4.6 mph 10.8 mph 93% 0.00 in 0 W/m2
05:14 52.9 °F 50.9 °F 29.45 in South 4.1 mph 10.8 mph 93% 0.00 in 0 W/m2
05:19 52.8 °F 50.9 °F 29.45 in SSE 5 mph 10.8 mph 93.2% 0.00 in 0 W/m2
05:24 52.8 °F 51 °F 29.45 in SSE 5.1 mph 10.8 mph 93.5% 0.00 in 0 W/m2
05:29 52.7 °F 50.9 °F 29.44 in SSE 5.2 mph 10.8 mph 93.5% 0.00 in 0 W/m2
05:34 52.7 °F 51 °F 29.44 in SSE 5.5 mph 9.6 mph 94% 0.00 in 0 W/m2
05:39 52.6 °F 50.9 °F 29.44 in SSE 5.3 mph 9.6 mph 94% 0.00 in 0 W/m2
05:44 52.6 °F 51 °F 29.44 in SSE 5.8 mph 9.6 mph 94% 0.00 in 0 W/m2
05:49 52.7 °F 51 °F 29.44 in SSE 5.8 mph 8.4 mph 94% 0.00 in 0 W/m2
05:54 52.7 °F 51 °F 29.43 in SSE 6.6 mph 12 mph 94% 0.00 in 0 W/m2
05:59 52.8 °F 51.1 °F 29.43 in South 5.8 mph 12 mph 94% 0.00 in 0 W/m2
06:04 52.9 °F 51.2 °F 29.44 in South 7.1 mph 12 mph 94% 0.00 in 0 W/m2
06:09 53 °F 51.5 °F 29.44 in South 6.9 mph 12 mph 94.3% 0.00 in 0 W/m2
06:14 52.9 °F 51.3 °F 29.44 in South 6.8 mph 15.6 mph 94% 0.00 in 0 W/m2
06:19 52.9 °F 51.5 °F 29.43 in South 6.7 mph 15.6 mph 94.7% 0.00 in 0 W/m2
06:24 52.8 °F 51.1 °F 29.43 in SSE 7.4 mph 15.6 mph 94% 0.00 in 0 W/m2
06:29 52.6 °F 51 °F 29.43 in SSE 6.8 mph 13.2 mph 94% 0.00 in 0 W/m2
06:34 52.1 °F 50.4 °F 29.43 in SE 5.3 mph 13.2 mph 94% 0.00 in 5 W/m2
06:39 51.3 °F 49.7 °F 29.43 in SSE 6 mph 13.2 mph 94% 0.00 in 7 W/m2
06:44 51 °F 49.3 °F 29.43 in SE 5.7 mph 10.8 mph 94% 0.00 in 11 W/m2
06:49 50.8 °F 49.2 °F 29.43 in SE 5.4 mph 9.6 mph 94% 0.00 in 14 W/m2
06:54 50.7 °F 49.3 °F 29.43 in SSE 5.4 mph 9.6 mph 94.7% 0.00 in 16 W/m2
06:59 50.8 °F 49.4 °F 29.43 in SSE 5.9 mph 9.6 mph 95% 0.00 in 18 W/m2
07:04 51 °F 49.6 °F 29.43 in SSE 6.1 mph 9.6 mph 95% 0.00 in 21 W/m2
07:09 51.2 °F 49.8 °F 29.43 in SSE 5.9 mph 10.8 mph 95% 0.00 in 28 W/m2
07:14 51.2 °F 49.9 °F 29.42 in SSE 5.4 mph 10.8 mph 95% 0.00 in 42 W/m2
07:19 51.3 °F 50 °F 29.42 in SSE 5.9 mph 10.8 mph 95% 0.00 in 49 W/m2
07:20 51.5 °F 50.1 °F 29.42 in SSE 5.8 mph 10.8 mph 95% 0.00 in 42 W/m2
07:29 51.8 °F 50.4 °F 29.42 in SSE 6.5 mph 9.6 mph 95% 0.00 in 56 W/m2
07:34 52 °F 50.6 °F 29.42 in SSE 6.3 mph 12 mph 95.1% 0.00 in 58 W/m2
07:36 52.2 °F 51.1 °F 29.42 in SSE 7.8 mph 12 mph 95.9% 0.00 in 53 W/m2
07:40 52.7 °F 51.6 °F 29.42 in SSE 6.9 mph 12 mph 96% 0.00 in 52 W/m2
07:49 53.3 °F 52.1 °F 29.42 in SSE 9.2 mph 13.2 mph 95.6% 0.00 in 77 W/m2
07:54 53.7 °F 52.6 °F 29.43 in SSE 7.6 mph 13.2 mph 96% 0.00 in 105 W/m2
07:59 54.2 °F 53.1 °F 29.43 in SSE 9.3 mph 14.4 mph 96% 0.00 in 105 W/m2
08:04 54.6 °F 53.5 °F 29.43 in SSE 9.5 mph 18 mph 96% 0.00 in 128 W/m2
08:09 55.1 °F 54 °F 29.43 in South 8.7 mph 21.6 mph 96% 0.00 in 128 W/m2
08:14 55.6 °F 54.4 °F 29.43 in SSE 10.8 mph 21.6 mph 95.8% 0.00 in 134 W/m2
08:19 55.9 °F 54.6 °F 29.43 in South 10.7 mph 21.6 mph 95.5% 0.00 in 135 W/m2
08:24 56.2 °F 54.8 °F 29.43 in South 9.8 mph 21.6 mph 95% 0.00 in 118 W/m2
08:29 56.5 °F 55.1 °F 29.43 in South 10 mph 19.2 mph 95% 0.00 in 121 W/m2
08:34 56.8 °F 55.4 °F 29.43 in South 10.8 mph 21.6 mph 95% 0.00 in 125 W/m2
08:39 57.3 °F 55.9 °F 29.44 in SSW 11.2 mph 26.4 mph 95% 0.00 in 153 W/m2
08:44 57.7 °F 56.2 °F 29.44 in South 9.9 mph 26.4 mph 94.8% 0.00 in 195 W/m2
08:49 57.9 °F 56.2 °F 29.43 in South 11.7 mph 26.4 mph 94% 0.00 in 151 W/m2
08:54 58.1 °F 56.3 °F 29.43 in South 11.7 mph 25.2 mph 94% 0.00 in 149 W/m2
08:59 58.1 °F 56.2 °F 29.43 in SSW 12.4 mph 25.2 mph 93.4% 0.00 in 127 W/m2
09:04 58.1 °F 56.1 °F 29.43 in SSW 14 mph 25.2 mph 93% 0.00 in 127 W/m2
09:09 58.1 °F 56.1 °F 29.43 in South 11.7 mph 25.2 mph 93% 0.00 in 98 W/m2
09:14 58.1 °F 56.1 °F 29.43 in SSW 11.8 mph 25.2 mph 93% 0.00 in 135 W/m2
09:19 58.3 °F 56.3 °F 29.43 in SSW 11.3 mph 21.6 mph 93% 0.00 in 181 W/m2
09:24 58.6 °F 56.3 °F 29.43 in South 13.2 mph 22.8 mph 92.3% 0.00 in 176 W/m2
09:29 58.8 °F 56.5 °F 29.43 in SSW 12.7 mph 22.8 mph 92% 0.00 in 186 W/m2
09:34 59 °F 56.5 °F 29.43 in South 11.9 mph 22.8 mph 91.4% 0.00 in 179 W/m2
09:39 59.3 °F 56.6 °F 29.42 in South 10.8 mph 22.8 mph 91% 0.00 in 181 W/m2
09:44 59.4 °F 56.6 °F 29.43 in SSW 13.3 mph 22.8 mph 90.2% 0.00 in 230 W/m2
09:49 59.7 °F 56.8 °F 29.43 in South 9 mph 21.6 mph 90% 0.00 in 243 W/m2
09:54 59.9 °F 56.8 °F 29.42 in SSW 13.1 mph 21.6 mph 89.6% 0.00 in 248 W/m2
09:59 60 °F 56.9 °F 29.42 in South 11.8 mph 22.8 mph 89.4% 0.00 in 241 W/m2
10:04 60.2 °F 57 °F 29.42 in SSW 12 mph 22.8 mph 89% 0.00 in 248 W/m2
10:09 60.5 °F 57.1 °F 29.42 in SSW 12.4 mph 22.8 mph 88.4% 0.00 in 278 W/m2
10:14 60.8 °F 57.2 °F 29.42 in SSW 12.1 mph 26.4 mph 88% 0.00 in 272 W/m2
10:19 61.2 °F 57.5 °F 29.42 in SSW 12.2 mph 26.4 mph 87.8% 0.00 in 216 W/m2
10:24 61.4 °F 57.2 °F 29.42 in South 11.8 mph 26.4 mph 86.3% 0.00 in 214 W/m2
10:29 61.5 °F 57.3 °F 29.42 in SSW 14.1 mph 26.4 mph 86% 0.00 in 230 W/m2
10:34 62.2 °F 57.9 °F 29.42 in SSW 11.1 mph 22.8 mph 85.8% 0.00 in 227 W/m2
10:39 63 °F 58.3 °F 29.42 in SSW 10.8 mph 21.6 mph 84.5% 0.00 in 272 W/m2
10:44 63.8 °F 58.5 °F 29.42 in SSW 9.1 mph 21.6 mph 83.1% 0.00 in 265 W/m2
10:49 64.4 °F 58.7 °F 29.42 in South 10.1 mph 22.8 mph 81.7% 0.00 in 258 W/m2
10:54 64.5 °F 58.7 °F 29.42 in SSW 11.3 mph 22.8 mph 81.4% 0.00 in 248 W/m2
10:59 65.3 °F 58.9 °F 29.42 in SSW 13.6 mph 22.8 mph 79.9% 0.00 in 294 W/m2
11:04 64.8 °F 58.4 °F 29.42 in SSW 12.3 mph 22.8 mph 79.9% 0.00 in 703 W/m2
11:09 65.6 °F 59.2 °F 29.42 in SSW 10.5 mph 20.4 mph 79.8% 0.00 in 744 W/m2
11:14 66.5 °F 59.6 °F 29.42 in SSW 11.9 mph 21.6 mph 78.4% 0.00 in 717 W/m2
11:19 67 °F 59.7 °F 29.42 in SSW 12.1 mph 24 mph 77.3% 0.00 in 717 W/m2
11:24 67.1 °F 59.7 °F 29.41 in South 11.6 mph 24 mph 77% 0.00 in 575 W/m2
11:29 67.1 °F 59.5 °F 29.41 in SSW 13.3 mph 24 mph 76.7% 0.00 in 279 W/m2
11:34 67.1 °F 59.6 °F 29.41 in SSW 13.3 mph 24 mph 76.8% 0.00 in 693 W/m2
11:39 67.4 °F 59.7 °F 29.41 in SSW 13.8 mph 25.2 mph 76.3% 0.00 in 693 W/m2
11:44 67 °F 59.4 °F 29.41 in SSW 16.8 mph 28.8 mph 76.4% 0.00 in 318 W/m2
11:49 67.4 °F 59.7 °F 29.41 in SSW 14.7 mph 28.8 mph 76.2% 0.00 in 703 W/m2
11:54 68 °F 59.8 °F 29.40 in SSW 14.4 mph 28.8 mph 75% 0.00 in 773 W/m2
11:59 68.3 °F 59.9 °F 29.40 in SSW 15.9 mph 28.8 mph 74.5% 0.00 in 733 W/m2
12:04 68.1 °F 59.8 °F 29.40 in SSW 11.4 mph 27.6 mph 74.7% 0.00 in 726 W/m2
12:09 68.5 °F 59.9 °F 29.40 in South 11.5 mph 26.4 mph 74.1% 0.00 in 684 W/m2
12:14 68.6 °F 59.8 °F 29.39 in SSW 15.5 mph 25.2 mph 73.5% 0.00 in 670 W/m2
12:19 68.6 °F 59.9 °F 29.39 in SSW 12.2 mph 25.2 mph 73.7% 0.00 in 657 W/m2
12:24 68.7 °F 59.9 °F 29.38 in SSW 13.4 mph 25.2 mph 73.7% 0.00 in 684 W/m2
12:29 68.8 °F 59.9 °F 29.38 in South 13.4 mph 25.2 mph 73.4% 0.00 in 700 W/m2
12:34 68.7 °F 60 °F 29.38 in SSW 9.8 mph 24 mph 73.7% 0.00 in 633 W/m2
12:39 69.4 °F 60.3 °F 29.37 in South 11.2 mph 24 mph 73% 0.00 in 675 W/m2
12:44 69.8 °F 60.5 °F 29.37 in South 12.4 mph 25.2 mph 72.1% 0.00 in 606 W/m2
12:49 69.4 °F 60.3 °F 29.36 in South 11.2 mph 25.2 mph 72.6% 0.00 in 636 W/m2
12:54 69.7 °F 60.5 °F 29.36 in South 11 mph 25.2 mph 72.7% 0.00 in 656 W/m2
12:59 69.7 °F 60.3 °F 29.36 in South 11.1 mph 24 mph 72.2% 0.00 in 656 W/m2
13:04 69.8 °F 60.5 °F 29.36 in South 12 mph 25.2 mph 72.3% 0.00 in 628 W/m2
13:09 70 °F 60.4 °F 29.36 in South 12.2 mph 25.2 mph 71.5% 0.00 in 591 W/m2
13:14 69.4 °F 60.2 °F 29.35 in South 12.6 mph 27.6 mph 72.4% 0.00 in 441 W/m2
13:19 69.4 °F 60.1 °F 29.35 in SSW 10.1 mph 27.6 mph 72.5% 0.00 in 404 W/m2
13:24 69.1 °F 60 °F 29.35 in South 12.3 mph 27.6 mph 72.8% 0.00 in 364 W/m2
13:29 68.8 °F 59.8 °F 29.35 in South 10.6 mph 27.6 mph 73% 0.00 in 325 W/m2
13:34 68.7 °F 59.7 °F 29.35 in SSW 11.7 mph 21.6 mph 73% 0.00 in 315 W/m2
13:39 68.9 °F 60.3 °F 29.34 in South 9.6 mph 20.4 mph 74% 0.00 in 288 W/m2
13:44 69.3 °F 60.6 °F 29.34 in South 10 mph 20.4 mph 73.8% 0.00 in 396 W/m2
13:49 69.3 °F 60.4 °F 29.34 in South 10.2 mph 20.4 mph 73.4% 0.00 in 311 W/m2
13:54 68.9 °F 60.1 °F 29.33 in South 9 mph 20.4 mph 73.7% 0.00 in 258 W/m2
Peotone Weather
Compliments of Weather Underground - 4 mb